• Join FlightAware (Why Join?)
  • Login
  • US Flag 
05:55AM EDT


 

Airport Tracker/Info


-or-


 

Live Flight TrackerFlight Track Log ✈ CSJ405 ✈ 02-May-2013 ✈ KROC - CYHM

Flight Track Log - Related Links

Times and Time Zones

All times are in EDT time to prevent confusion due to time zone crossing. See the CSJ405 flight status page for this flight to view local times or setup timezone preferences in your user account.

Time Position Orientation Groundspeed Altitude Reporting Facility
EDT Latitude Longitude Course Direction KTS MPH feet Rate Location/Type
10:04PM 43.1419 -77.6411 37° Northeast 112 129 2,000  Level Cleveland Center
10:05PM 43.1533 -77.6833 290° West 121 139 2,900 900 Climbing Cleveland Center
10:06PM 43.1567 -77.7286 276° West 123 142 3,900 540 Climbing Cleveland Center
10:07PM 43.1558 -77.7856 269° West 161 185 4,000  Climbing Cleveland Center
10:08PM 43.1617 -77.8508 277° West 176 203 4,000  Level Cleveland Center
10:09PM 43.1500 -77.9167 256° West 180 207 4,000  Level Toronto Center
10:10PM 43.1500 -77.9833 270° West 180 207 4,000  Level Toronto Center
10:11PM 43.1500 -78.0500 270° West 180 207 4,000  Level Toronto Center
10:12PM 43.1500 -78.1167 270° West 180 207 4,000  Level Toronto Center
10:13PM 43.1500 -78.2000 270° West 180 207 4,000  Level Toronto Center
10:14PM 43.1500 -78.2667 270° West 180 207 4,000  Level Toronto Center
10:15PM 43.1500 -78.3333 270° West 180 207 4,000  Level Toronto Center
10:16PM 43.1500 -78.4000 270° West 180 207 4,000  Level Toronto Center
10:17PM 43.1500 -78.4667 270° West 180 207 4,000  Level Toronto Center
10:18PM 43.1667 -78.5333 289° West 180 207 4,000  Level Toronto Center
10:19PM 43.1667 -78.6000 270° West 180 207 4,000  Level Toronto Center
10:20PM 43.1667 -78.6667 270° West 180 207 4,000  Level Toronto Center
10:21PM 43.1667 -78.7500 270° West 170 196 4,000  Level Toronto Center
10:22PM 43.1667 -78.8167 270° West 170 196 4,000  Level Toronto Center
10:23PM 43.1667 -78.8833 270° West 170 196 4,000  Level Toronto Center
10:24PM 43.1667 -78.9167 270° West 180 207 4,000  Level Toronto Center
10:25PM 43.1667 -79.0000 270° West 170 196 4,000  Level Toronto Center
10:26PM 43.1667 -79.0667 270° West 170 196 4,000  Level Toronto Center
10:27PM 43.1667 -79.1333 270° West 170 196 4,000  Level Toronto Center
10:28PM 43.1667 -79.2000 270° West 170 196 4,000  Level Toronto Center
10:29PM 43.1667 -79.2667 270° West 170 196 4,000  Level Toronto Center
10:30PM 43.1667 -79.3333 270° West 170 196 4,000 -60 Level Toronto Center
10:31PM 43.1667 -79.4000 270° West 170 196 3,900  Descending Toronto Center
10:32PM 43.1667 -79.4500 270° West 170 196 4,000 -120 Climbing Toronto Center
10:33PM 43.1667 -79.5167 270° West 180 207 3,700 -540 Descending Toronto Center
10:34PM 43.1667 -79.6167 270° West 190 219 3,000 -480 Descending Toronto Center
10:35PM 43.1667 -79.6833 270° West 190 219 2,800 -240 Descending Toronto Center
10:36PM 43.1833 -79.7500 289° West 190 219 2,600 -360 Descending Toronto Center
10:37PM 43.1833 -79.8167 270° West 190 219 2,100 -660 Descending Toronto Center
10:38PM 43.1833 -79.8833 270° West 180 207 1,300 -660 Descending Toronto Center
10:39PM 43.1667 -79.9000 216° Southwest 80 92 800 -300 Descending Toronto Center
10:40PM 43.1500 -79.9000 180° South 40 46 800  Level Toronto Center